首页
METAR-TAF:

METAR-TAF

机场 :

Draughon-Miller Central Texas Regional Airport

Temple, 得克萨斯州, 美国

纬度: 31-09N, 经度: 097-24W, 海拔: 208米

当前天气观测

该预报发布于14分钟前的12:51 UTC
风速9节,风向
温度 27°C
湿度 94%
气压 1015 hPa
能見度: 16.1公里
多云层高于600英尺

METAR: KTPL 251251Z AUTO 18009KT 10SM BKN006 27/26 A2997 RMK AO2 SLP135 T02720256

时间: 08:05 (13:05 UTC)


TAF: 丢失

超过4000个机场的气象观测和天气预报(METAR&TAF报告)。

可查询的气象台以黄色和红色小点在地图上表示。

将鼠标移到小点上方,可查看气象台名称。

然后点击查看天气观测和预报。

如需切换地图:点击带黑十字的绿色按钮放大地图;点击带横线的绿色按钮缩小地图;或者点击绿色箭头查看邻近地区的地图。


METAR-TAF: